createdAt,value
2022-09-03T00:02:17.733Z,65765.94
2022-09-03T00:04:58.093Z,65745.09
2022-09-03T00:07:47.250Z,65736.41
2022-09-03T00:10:27.790Z,65729.16
2022-09-03T00:13:00.201Z,65729.72
2022-09-03T00:15:27.725Z,65732.34
2022-09-03T00:18:11.650Z,65711.94
2022-09-03T00:20:43.951Z,65708.59
2022-09-03T00:23:18.572Z,65719.75
2022-09-03T00:25:55.753Z,65712.34
2022-09-03T00:28:52.704Z,65692.63
2022-09-03T00:31:32.828Z,65681.47
2022-09-03T00:34:08.666Z,65691.22
2022-09-03T00:36:43.286Z,65697.16
2022-09-03T00:39:16.202Z,65682.09
2022-09-03T00:41:57.786Z,65679.47
2022-09-03T00:44:39.812Z,65680.47
2022-09-03T00:47:28.098Z,65656.84
2022-09-03T00:50:07.425Z,65655.34
2022-09-03T00:52:50.919Z,65653.34
2022-09-03T00:55:45.304Z,65647.41
2022-09-03T00:58:26.590Z,65650.94
2022-09-03T01:00:53.034Z,65640.72
2022-09-03T01:03:51.194Z,65638.72
2022-09-03T01:06:23.458Z,65636.66
2022-09-03T01:09:13.959Z,65647.88
2022-09-03T01:11:49.899Z,65622.38
2022-09-03T01:14:28.109Z,65620.38
2022-09-03T01:17:19.225Z,65607.72
2022-09-03T01:20:00.628Z,65610.88
2022-09-03T01:22:51.629Z,65602.94
2022-09-03T01:25:38.868Z,65622.25
2022-09-03T01:28:44.389Z,65598.84
2022-09-03T01:31:23.039Z,65614.47
2022-09-03T01:34:11.394Z,65598.13
2022-09-03T01:36:47.378Z,65588.28
2022-09-03T01:39:22.847Z,65605.75
2022-09-03T01:42:14.107Z,65595.88
2022-09-03T01:45:07.346Z,65593.28
2022-09-03T01:47:51.853Z,65583.09
2022-09-03T01:50:36.455Z,65591.09
2022-09-03T01:55:56.524Z,65580.50
2022-09-03T01:58:31.320Z,65575.09
2022-09-03T02:01:05.402Z,65581.81
2022-09-03T02:03:41.407Z,65594.47
2022-09-03T02:06:09.221Z,65585.38
2022-09-03T02:08:35.819Z,65586.28
2022-09-03T02:11:08.593Z,65586.66
2022-09-03T02:13:37.720Z,65581.63
2022-09-03T02:16:16.574Z,65577.00
2022-09-03T02:18:48.234Z,65568.81
2022-09-03T02:21:20.368Z,65572.53
2022-09-03T02:23:48.394Z,65575.16
2022-09-03T02:26:19.894Z,65560.31
2022-09-03T02:28:46.918Z,65563.47
2022-09-03T02:31:13.317Z,65566.47
2022-09-03T02:33:43.354Z,65561.63
2022-09-03T02:36:12.645Z,65555.50
2022-09-03T02:38:42.001Z,65571.84
2022-09-03T02:41:08.925Z,65550.88
2022-09-03T02:43:50.022Z,65551.78
2022-09-03T02:46:21.512Z,65546.81
2022-09-03T02:48:48.463Z,65549.03
2022-09-03T02:51:14.970Z,65550.72
2022-09-03T02:53:42.682Z,65558.00
2022-09-03T02:56:09.401Z,65536.03
2022-09-03T02:58:35.783Z,65540.50
2022-09-03T03:01:03.838Z,65541.09
2022-09-03T03:03:30.378Z,65544.06
2022-09-03T03:06:00.547Z,65537.19
2022-09-03T03:08:28.759Z,65521.44
2022-09-03T03:10:58.688Z,65513.84
2022-09-03T03:13:26.248Z,65506.03
2022-09-03T03:15:56.698Z,65502.72
2022-09-03T03:18:23.148Z,65510.19
2022-09-03T03:23:15.850Z,65497.72
2022-09-03T03:25:42.265Z,65513.34
2022-09-03T03:28:08.742Z,65513.69
2022-09-03T03:30:39.751Z,65500.50
2022-09-03T03:33:07.340Z,65513.34
2022-09-03T03:35:33.815Z,65503.47
2022-09-03T03:38:00.736Z,65500.16
2022-09-03T03:40:27.128Z,65497.75
2022-09-03T03:45:20.957Z,65491.66
2022-09-03T03:47:47.370Z,65477.34
2022-09-03T03:50:13.717Z,65488.88
2022-09-03T03:52:40.146Z,65488.50
2022-09-03T03:55:06.850Z,65490.38
2022-09-03T03:57:33.245Z,65472.94
2022-09-03T03:59:59.765Z,65470.34
2022-09-03T04:02:26.515Z,65471.13
2022-09-03T04:04:52.946Z,65443.28
2022-09-03T04:07:19.336Z,65458.16
2022-09-03T04:09:45.816Z,65446.13
2022-09-03T04:12:12.207Z,65443.16
2022-09-03T04:14:38.822Z,65463.59
2022-09-03T04:17:05.239Z,65461.94
2022-09-03T04:19:31.736Z,65444.84
2022-09-03T04:21:58.145Z,65446.31
2022-09-03T04:24:24.572Z,65434.66
2022-09-03T04:26:50.972Z,65435.56
2022-09-03T04:29:18.250Z,65436.34
2022-09-03T04:32:04.626Z,65447.63
2022-09-03T04:34:31.012Z,65428.34
2022-09-03T04:36:58.975Z,65437.09
2022-09-03T04:39:26.050Z,65435.78
2022-09-03T04:41:52.621Z,65432.22
2022-09-03T04:44:18.977Z,65440.22
2022-09-03T04:46:47.707Z,65431.88
2022-09-03T04:49:14.705Z,65433.38
2022-09-03T04:51:41.205Z,65430.81
2022-09-03T04:54:07.741Z,65438.22
2022-09-03T04:56:35.224Z,65413.00
2022-09-03T04:59:07.221Z,65427.31
2022-09-03T05:01:35.261Z,65407.25
2022-09-03T05:04:02.730Z,65426.38
2022-09-03T05:06:31.409Z,65397.44
2022-09-03T05:08:58.331Z,65412.81
2022-09-03T05:11:26.227Z,65420.44
2022-09-03T05:13:55.100Z,65408.94
2022-09-03T05:16:23.450Z,65414.13
2022-09-03T05:18:53.942Z,65415.06
2022-09-03T05:21:20.601Z,65426.38
2022-09-03T05:23:48.686Z,65423.41
2022-09-03T05:26:18.015Z,65416.69
2022-09-03T05:28:44.921Z,65424.47
2022-09-03T05:31:14.331Z,65443.03
2022-09-03T05:33:52.605Z,65436.50
2022-09-03T05:36:22.846Z,65441.09
2022-09-03T05:38:50.065Z,65447.41
2022-09-03T05:41:19.046Z,65459.63
2022-09-03T05:43:51.779Z,65473.72
2022-09-03T05:46:18.505Z,65476.84
2022-09-03T05:48:45.256Z,65494.25
2022-09-03T05:51:17.795Z,65498.13
2022-09-03T05:53:48.812Z,65498.28
2022-09-03T05:56:20.578Z,65515.72
2022-09-03T05:58:53.630Z,65516.25
2022-09-03T06:01:25.572Z,65525.09
2022-09-03T06:03:58.351Z,65536.81
2022-09-03T06:06:25.939Z,65539.94
2022-09-03T06:08:58.054Z,65555.13
2022-09-03T06:11:27.916Z,65558.81
2022-09-03T06:14:05.712Z,65577.72
2022-09-03T06:16:34.281Z,65579.00
2022-09-03T06:19:01.020Z,65593.81
2022-09-03T06:21:28.409Z,65606.25
2022-09-03T06:23:59.828Z,65611.06
2022-09-03T06:26:28.414Z,65619.97
2022-09-03T06:28:56.108Z,65629.06
2022-09-03T06:33:49.548Z,65649.47
2022-09-03T06:36:18.447Z,65647.72
2022-09-03T06:38:46.051Z,65676.03
2022-09-03T06:41:25.133Z,65668.53
2022-09-03T06:44:12.263Z,65681.31
2022-09-03T06:46:42.223Z,65684.81
2022-09-03T06:51:37.470Z,65698.19
2022-09-03T06:54:06.738Z,65709.88
2022-09-03T06:56:39.498Z,65723.22
2022-09-03T06:59:12.101Z,65747.84
2022-09-03T07:01:43.618Z,65754.75
2022-09-03T07:06:40.088Z,65768.44
2022-09-03T07:11:35.768Z,65785.31
2022-09-03T07:14:04.420Z,65799.06
2022-09-03T07:16:34.114Z,65807.41
2022-09-03T07:21:29.453Z,65827.63
2022-09-03T07:23:56.912Z,65842.88
2022-09-03T07:26:26.162Z,65849.56
2022-09-03T07:31:25.811Z,65876.06
2022-09-03T07:33:59.935Z,65886.88
2022-09-03T07:36:29.168Z,65887.75
2022-09-03T07:39:01.672Z,65900.59
2022-09-03T07:41:29.012Z,65905.97
2022-09-03T07:43:56.895Z,65917.91
2022-09-03T07:46:25.429Z,65933.50
2022-09-03T07:48:57.120Z,65952.50
2022-09-03T07:51:26.500Z,65946.84
2022-09-03T07:53:55.316Z,65959.19
2022-09-03T07:56:21.920Z,65947.25
2022-09-03T07:58:48.354Z,65962.50
2022-09-03T08:01:19.695Z,65970.47
2022-09-03T08:03:48.625Z,65992.63
2022-09-03T08:06:16.600Z,65987.22
2022-09-03T08:08:45.126Z,66001.13
2022-09-03T08:11:17.312Z,66014.84
2022-09-03T08:16:18.674Z,66031.66
2022-09-03T08:18:47.387Z,66045.19
2022-09-03T08:21:17.790Z,66057.84
2022-09-03T08:26:12.703Z,66075.50
2022-09-03T08:31:20.636Z,66086.25
2022-09-03T08:36:22.288Z,66090.00
2022-09-03T08:38:54.796Z,66098.91
2022-09-03T08:41:37.264Z,66111.34
2022-09-03T08:44:10.273Z,66119.16
2022-09-03T08:46:54.225Z,66117.50
2022-09-03T08:49:55.673Z,66123.47
2022-09-03T08:52:26.059Z,66140.22
2022-09-03T08:55:00.897Z,66142.06
2022-09-03T08:59:56.407Z,66167.75
2022-09-03T09:05:40.293Z,66212.81
2022-09-03T09:08:34.094Z,66206.25
2022-09-03T09:14:03.697Z,66239.63
2022-09-03T09:16:40.356Z,66246.31
2022-09-03T09:19:33.848Z,66236.41
2022-09-03T09:24:39.303Z,66245.69
2022-09-03T09:27:06.916Z,66252.97
2022-09-03T09:29:37.085Z,66257.69
2022-09-03T09:34:36.232Z,66284.16
2022-09-03T09:39:32.153Z,66318.41
2022-09-03T09:42:08.121Z,66324.72
2022-09-03T09:44:36.049Z,66329.03
2022-09-03T09:47:26.745Z,66330.53
2022-09-03T09:49:56.289Z,66334.63
2022-09-03T09:52:25.964Z,66346.38
2022-09-03T09:54:54.817Z,66363.16
2022-09-03T09:57:25.583Z,66362.09
2022-09-03T10:02:47.002Z,66379.38
2022-09-03T10:07:40.246Z,66389.03
2022-09-03T10:10:16.582Z,66389.03
2022-09-03T10:13:01.602Z,66383.84
2022-09-03T10:20:42.064Z,66413.63
2022-09-03T10:23:18.436Z,66434.72
2022-09-03T10:28:31.387Z,66440.25
2022-09-03T10:33:49.101Z,66526.53
2022-09-03T10:36:50.877Z,66543.91
2022-09-03T10:39:20.104Z,66552.84
2022-09-03T10:44:46.319Z,66548.53
2022-09-03T10:47:41.744Z,66548.38
2022-09-03T10:50:17.339Z,66555.81
2022-09-03T10:53:26.176Z,66569.50
2022-09-03T10:56:05.381Z,66552.84
2022-09-03T10:58:53.239Z,66523.25
2022-09-03T11:01:34.889Z,66543.91
2022-09-03T11:04:23.624Z,66577.06
2022-09-03T11:06:58.178Z,66603.41
2022-09-03T11:09:37.985Z,66605.63
2022-09-03T11:12:10.604Z,66612.22
2022-09-03T11:22:43.700Z,66642.31
2022-09-03T11:25:13.646Z,66622.31
2022-09-03T11:27:42.782Z,66603.13
2022-09-03T11:32:56.086Z,66586.06
2022-09-03T11:38:00.284Z,66602.28
2022-09-03T11:40:35.894Z,66613.34
2022-09-03T11:43:28.400Z,66609.56
2022-09-03T11:46:27.816Z,66606.19
2022-09-03T11:48:57.625Z,66623.44
2022-09-03T11:51:29.961Z,66624.72
2022-09-03T11:56:25.212Z,66652.97
2022-09-03T11:59:10.483Z,66654.81
2022-09-03T12:01:38.379Z,66657.75
2022-09-03T12:04:07.908Z,66638.16
2022-09-03T12:07:00.249Z,66644.88
2022-09-03T12:09:38.708Z,66649.66
2022-09-03T12:12:30.256Z,66676.81
2022-09-03T12:15:15.049Z,66683.94
2022-09-03T12:17:47.262Z,66671.63
2022-09-03T12:25:13.538Z,66691.78
2022-09-03T12:30:17.053Z,66687.31
2022-09-03T12:32:43.761Z,66703.56
2022-09-03T12:38:08.491Z,66701.50
2022-09-03T12:40:35.600Z,66696.44
2022-09-03T12:46:16.988Z,66677.38
2022-09-03T12:54:22.104Z,66690.25
2022-09-03T12:57:00.058Z,66699.25
2022-09-03T12:59:30.120Z,66682.97
2022-09-03T13:02:03.875Z,66702.47
2022-09-03T13:04:35.244Z,66702.59
2022-09-03T13:09:33.800Z,66699.81
2022-09-03T13:14:28.189Z,66686.75
2022-09-03T13:17:20.500Z,66691.94
2022-09-03T13:19:58.268Z,66684.97
2022-09-03T13:25:14.527Z,66697.38
2022-09-03T13:28:17.759Z,66676.25
2022-09-03T13:31:26.918Z,66679.16
2022-09-03T13:36:56.279Z,66689.72
2022-09-03T13:39:38.388Z,66705.19
2022-09-03T13:44:50.137Z,66715.91
2022-09-03T13:50:22.197Z,66719.13
2022-09-03T13:55:25.812Z,66666.00
2022-09-03T13:58:30.698Z,66665.91
2022-09-03T14:03:48.984Z,66665.63
2022-09-03T14:09:14.216Z,66627.94
2022-09-03T14:12:19.455Z,66619.53
2022-09-03T14:14:56.771Z,66611.09
2022-09-03T14:17:37.799Z,66614.44
2022-09-03T14:20:06.879Z,66616.69
2022-09-03T14:22:48.210Z,66617.81
2022-09-03T14:27:45.814Z,66592.19
2022-09-03T14:30:38.197Z,66586.06
2022-09-03T14:36:14.525Z,66574.69
2022-09-03T14:41:37.464Z,66578.22
2022-09-03T14:46:49.298Z,66589.81
2022-09-03T14:49:26.776Z,66595.41
2022-09-03T14:52:12.115Z,66586.50
2022-09-03T14:55:00.827Z,66623.50
2022-09-03T14:57:43.682Z,66609.25
2022-09-03T15:00:43.395Z,66611.81
2022-09-03T15:11:23.518Z,66618.00
2022-09-03T15:13:54.431Z,66607.72
2022-09-03T15:16:52.490Z,66603.81
2022-09-03T15:22:58.067Z,66620.88
2022-09-03T15:30:20.882Z,66624.56
2022-09-03T15:33:03.068Z,66623.03
2022-09-03T15:35:38.325Z,66629.03
2022-09-03T15:38:20.601Z,66621.91
2022-09-03T15:40:46.934Z,66618.94
2022-09-03T15:43:27.330Z,66620.09
2022-09-03T15:45:59.248Z,66617.81
2022-09-03T15:48:45.955Z,66623.59
2022-09-03T15:51:34.057Z,66637.44
2022-09-03T15:54:12.534Z,66639.25
2022-09-03T15:56:55.820Z,66635.66
2022-09-03T15:59:51.441Z,66631.28
2022-09-03T16:02:33.377Z,66624.13
2022-09-03T16:07:38.413Z,66622.72
2022-09-03T16:10:24.719Z,66614.13
2022-09-03T16:13:08.833Z,66606.75
2022-09-03T16:18:33.695Z,66602.84
2022-09-03T16:21:21.362Z,66595.31
2022-09-03T16:24:05.849Z,66599.88
2022-09-03T16:26:37.265Z,66596.53
2022-09-03T16:29:18.923Z,66593.16
2022-09-03T16:37:26.761Z,66592.03
2022-09-03T16:43:39.665Z,66588.28
2022-09-03T16:54:06.159Z,66591.38
2022-09-03T16:56:50.971Z,66595.25
2022-09-03T16:59:17.394Z,66590.22
2022-09-03T17:01:43.845Z,66581.41
2022-09-03T17:04:22.423Z,66570.75
2022-09-03T17:09:54.311Z,66558.28
2022-09-03T17:12:41.742Z,66547.41
2022-09-03T17:18:14.213Z,66537.31
2022-09-03T17:23:26.109Z,66540.53
2022-09-03T17:26:31.990Z,66542.06
2022-09-03T17:31:51.584Z,66522.75
2022-09-03T17:37:12.997Z,66517.72
2022-09-03T17:39:55.332Z,66523.16
2022-09-03T17:42:30.041Z,66516.59
2022-09-03T17:45:11.753Z,66512.22
2022-09-03T17:50:18.594Z,66486.63
2022-09-03T17:52:49.595Z,66478.97
2022-09-03T17:55:38.550Z,66464.97
2022-09-03T17:58:14.516Z,66447.22
2022-09-03T18:00:57.910Z,66445.53
2022-09-03T18:06:06.048Z,66452.91
2022-09-03T18:08:58.910Z,66439.78
2022-09-03T18:11:34.228Z,66443.13
2022-09-03T18:20:04.573Z,66420.19
2022-09-03T18:23:12.089Z,66415.00
2022-09-03T18:26:00.984Z,66401.88
2022-09-03T18:28:56.293Z,66393.50
2022-09-03T18:40:03.051Z,66378.25
2022-09-03T18:43:36.900Z,66366.34
2022-09-03T18:50:03.217Z,66345.25
2022-09-03T18:56:00.702Z,66328.06
2022-09-03T19:01:56.451Z,66325.13
2022-09-03T19:08:00.038Z,66322.88
2022-09-03T19:13:47.448Z,66295.66
2022-09-03T19:16:47.510Z,66302.22
2022-09-03T19:22:30.983Z,66288.22
2022-09-03T19:25:30.864Z,66280.59
2022-09-03T19:28:40.446Z,66270.91
2022-09-03T19:31:40.682Z,66269.94
2022-09-03T19:34:44.338Z,66266.47
2022-09-03T19:37:35.254Z,66263.81
2022-09-03T19:41:06.830Z,66251.50
2022-09-03T19:43:57.966Z,66241.84
2022-09-03T19:47:00.556Z,66236.81
2022-09-03T19:50:04.081Z,66232.91
2022-09-03T19:53:00.764Z,66227.50
2022-09-03T19:55:50.669Z,66226.38
2022-09-03T19:58:43.667Z,66211.28
2022-09-03T20:01:30.769Z,66206.13
2022-09-03T20:07:04.263Z,66184.25
2022-09-03T20:09:59.502Z,66181.38
2022-09-03T20:12:31.098Z,66179.84
2022-09-03T20:14:57.481Z,66166.47
2022-09-03T20:17:41.816Z,66168.16
2022-09-03T20:20:36.009Z,66158.66
2022-09-03T20:23:15.737Z,66155.28
2022-09-03T20:25:54.239Z,66145.38
2022-09-03T20:28:41.809Z,66137.41
2022-09-03T20:31:44.344Z,66134.63
2022-09-03T20:34:35.115Z,66129.47
2022-09-03T20:37:04.416Z,66122.19
2022-09-03T20:40:06.675Z,66115.66
2022-09-03T20:43:03.226Z,66106.72
2022-09-03T20:45:49.393Z,66105.63
2022-09-03T20:51:12.962Z,66101.53
2022-09-03T20:54:08.625Z,66094.63
2022-09-03T20:56:59.009Z,66086.81
2022-09-03T20:59:55.474Z,66081.78
2022-09-03T21:04:52.231Z,66076.03
2022-09-03T21:07:55.850Z,66070.63
2022-09-03T21:13:32.618Z,66063.59
2022-09-03T21:16:24.349Z,66050.38
2022-09-03T21:19:11.752Z,66042.72
2022-09-03T21:21:40.751Z,66045.91
2022-09-03T21:24:22.892Z,66036.59
2022-09-03T21:29:41.511Z,66032.53
2022-09-03T21:32:23.404Z,66028.63
2022-09-03T21:37:24.916Z,66020.81
2022-09-03T21:39:55.757Z,66012.06
2022-09-03T21:42:37.720Z,66005.94
2022-09-03T21:45:11.717Z,66001.88
2022-09-03T21:47:44.817Z,65992.00
2022-09-03T21:50:19.502Z,65978.38
2022-09-03T21:52:59.188Z,65984.06
2022-09-03T21:55:37.561Z,65973.97
2022-09-03T21:58:24.730Z,65963.56
2022-09-03T22:00:56.987Z,65958.38
2022-09-03T22:06:01.396Z,65954.66
2022-09-03T22:08:32.653Z,65964.56
2022-09-03T22:11:05.789Z,65959.72
2022-09-03T22:13:39.312Z,65943.50
2022-09-03T22:18:50.306Z,65926.59
2022-09-03T22:21:24.692Z,65933.69
2022-09-03T22:24:10.191Z,65933.28
2022-09-03T22:26:49.074Z,65937.03
2022-09-03T22:29:25.429Z,65929.78
2022-09-03T22:32:20.771Z,65931.28
2022-09-03T22:35:25.547Z,65923.81
2022-09-03T22:38:10.559Z,65925.72
2022-09-03T22:40:52.574Z,65925.16
2022-09-03T22:43:54.471Z,65916.19
2022-09-03T22:49:06.283Z,65914.91
2022-09-03T22:51:46.380Z,65912.91
2022-09-03T22:54:41.874Z,65908.03
2022-09-03T22:57:10.568Z,65904.88
2022-09-03T23:00:01.898Z,65899.31
2022-09-03T23:02:31.454Z,65878.31
2022-09-03T23:05:08.481Z,65873.13
2022-09-03T23:08:06.153Z,65872.00
2022-09-03T23:10:43.871Z,65867.56
2022-09-03T23:13:29.910Z,65867.00
2022-09-03T23:16:19.998Z,65862.53
2022-09-03T23:18:49.258Z,65864.50
2022-09-03T23:21:24.432Z,65848.47
2022-09-03T23:23:57.782Z,65838.06
2022-09-03T23:26:42.566Z,65832.13
2022-09-03T23:29:37.204Z,65836.22
2022-09-03T23:32:06.345Z,65841.63
2022-09-03T23:34:32.781Z,65835.81
2022-09-03T23:37:33.056Z,65833.59
2022-09-03T23:40:15.874Z,65829.69
2022-09-03T23:42:48.157Z,65827.47
2022-09-03T23:45:36.387Z,65823.56
2022-09-03T23:48:44.319Z,65820.22
2022-09-03T23:51:29.200Z,65822.66
2022-09-03T23:54:13.616Z,65815.59
2022-09-03T23:57:11.079Z,65814.09
2022-09-03T23:59:52.871Z,65804.25
